Time;durP1;ratioP1;P1;durP2;ratioP2;P2;SDS_P1;SDS_P2;PMS_P1;PMS_P2;Temp;Humidity;BMP_temperature;BMP_pressure;BME280_temperature;BME280_humidity;BME280_pressure;Samples;Min_cycle;Max_cycle;Signal;HPM_P1;HPM_P2
2022/02/25 00:01:56;;;;;;;3.10;1.10;;;3.90;11.90;;;;;;7357822;19;20007;-60
2022/02/25 00:04:29;;;;;;;3.72;1.20;;;3.80;11.90;;;;;;7363054;19;20462;-62
2022/02/25 00:07:02;;;;;;;3.40;1.13;;;3.80;11.80;;;;;;7360820;19;20504;-60
2022/02/25 00:09:32;;;;;;;3.60;1.25;;;3.70;10.70;;;;;;7382270;19;20025;-59
2022/02/25 00:12:02;;;;;;;2.85;1.08;;;3.60;11.70;;;;;;7356807;19;20034;-58
2022/02/25 00:14:32;;;;;;;3.90;1.52;;;3.60;9.80;;;;;;7360727;19;20494;-59
2022/02/25 00:17:02;;;;;;;1.98;1.15;;;3.50;9.60;;;;;;7360422;19;20512;-61
2022/02/25 00:19:32;;;;;;;1.85;1.02;;;3.50;10.70;;;;;;7360968;19;20021;-60
2022/02/25 00:22:07;;;;;;;3.25;1.52;;;3.40;10.70;;;;;;7357549;19;20098;-60
2022/02/25 00:24:37;;;;;;;2.00;1.30;;;3.40;11.30;;;;;;7360789;19;20011;-60
2022/02/25 00:27:07;;;;;;;4.35;1.85;;;3.40;10.70;;;;;;7380606;19;20027;-60
2022/02/25 00:29:37;;;;;;;1.98;1.50;;;3.30;11.50;;;;;;7358768;19;20011;-60
2022/02/25 00:32:08;;;;;;;4.38;1.90;;;3.30;10.40;;;;;;7358854;19;20066;-60
2022/02/25 00:34:38;;;;;;;3.30;1.80;;;3.30;9.30;;;;;;7362132;19;20017;-60
2022/02/25 00:37:10;;;;;;;2.30;1.63;;;3.30;9.90;;;;;;7361295;19;20007;-60
2022/02/25 00:39:40;;;;;;;4.47;1.65;;;3.30;9.70;;;;;;7359297;19;20311;-60
2022/02/25 00:42:12;;;;;;;3.53;1.70;;;3.30;10.20;;;;;;7378564;19;20014;-61
2022/02/25 00:44:43;;;;;;;5.45;2.00;;;3.30;10.60;;;;;;7359743;19;20030;-60
2022/02/25 00:47:13;;;;;;;5.32;1.92;;;3.20;10.60;;;;;;7362139;19;20014;-59
2022/02/25 00:49:43;;;;;;;6.15;2.22;;;3.20;10.30;;;;;;7363907;19;20021;-59
2022/02/25 00:52:15;;;;;;;7.72;1.90;;;3.20;10.70;;;;;;7365282;19;20371;-59
2022/02/25 00:54:46;;;;;;;2.75;1.80;;;3.10;11.40;;;;;;7368343;19;20034;-59
2022/02/25 00:57:15;;;;;;;3.45;1.60;;;3.10;12.30;;;;;;7388347;19;20480;-59
2022/02/25 00:59:46;;;;;;;2.97;1.63;;;3.10;13.10;;;;;;7364359;19;20456;-60
2022/02/25 01:02:16;;;;;;;5.55;1.92;;;3.10;13.80;;;;;;7363422;19;20010;-60
2022/02/25 01:04:49;;;;;;;5.03;1.70;;;3.10;13.90;;;;;;7366035;19;20067;-60
2022/02/25 01:07:21;;;;;;;4.20;2.00;;;3.00;14.20;;;;;;7368054;19;20017;-60
2022/02/25 01:09:51;;;;;;;4.00;1.90;;;3.10;13.40;;;;;;7364517;19;20017;-61
2022/02/25 01:12:21;;;;;;;3.88;1.83;;;3.10;14.50;;;;;;7384808;19;20025;-60
2022/02/25 01:14:51;;;;;;;3.17;1.52;;;3.00;13.30;;;;;;7366357;19;20014;-59
2022/02/25 01:17:21;;;;;;;3.83;1.60;;;3.00;12.40;;;;;;7367847;19;20080;-59
2022/02/25 01:19:51;;;;;;;2.47;1.63;;;3.00;12.10;;;;;;7364764;19;20014;-59
2022/02/25 01:22:25;;;;;;;5.22;1.58;;;2.90;11.70;;;;;;7362749;19;20369;-60
2022/02/25 01:24:55;;;;;;;4.25;1.60;;;3.00;9.80;;;;;;7366141;19;20569;-60
2022/02/25 01:27:25;;;;;;;6.65;1.70;;;2.90;9.70;;;;;;7390638;19;20073;-60
2022/02/25 01:29:55;;;;;;;4.32;1.70;;;2.80;10.50;;;;;;7364962;19;20010;-60
2022/02/25 01:32:26;;;;;;;3.60;1.45;;;2.90;9.90;;;;;;7361280;19;20534;-60
2022/02/25 01:34:56;;;;;;;3.78;1.67;;;2.80;8.70;;;;;;7364292;19;20006;-60
2022/02/25 01:37:29;;;;;;;5.95;2.10;;;2.80;8.50;;;;;;7368851;19;20018;-61
2022/02/25 01:39:58;;;;;;;2.78;1.67;;;2.80;9.00;;;;;;7362431;19;20497;-60
2022/02/25 01:42:28;;;;;;;2.50;1.60;;;2.70;9.40;;;;;;7380999;19;20014;-60
2022/02/25 01:44:59;;;;;;;4.93;1.92;;;2.70;10.00;;;;;;7359747;19;20679;-59
2022/02/25 01:47:31;;;;;;;5.82;2.15;;;2.70;11.10;;;;;;7366778;19;20018;-59
2022/02/25 01:50:01;;;;;;;3.95;1.70;;;2.70;11.10;;;;;;7365049;19;20062;-60
2022/02/25 01:52:35;;;;;;;4.15;1.60;;;2.60;11.00;;;;;;7361110;19;20010;-60
2022/02/25 01:55:05;;;;;;;4.32;1.30;;;2.60;11.10;;;;;;7363356;19;20031;-59
2022/02/25 01:57:35;;;;;;;3.40;1.52;;;2.60;11.10;;;;;;7365014;19;20045;-59
2022/02/25 02:00:07;;;;;;;2.80;1.38;;;2.60;9.30;;;;;;7385485;19;20019;-59
2022/02/25 02:02:37;;;;;;;5.45;1.73;;;2.50;8.50;;;;;;7359994;19;20014;-59
2022/02/25 02:05:08;;;;;;;4.50;1.63;;;2.50;8.10;;;;;;7364464;19;20011;-58
2022/02/25 02:07:40;;;;;;;3.65;1.20;;;2.50;7.40;;;;;;7366689;19;20107;-59
2022/02/25 02:10:11;;;;;;;3.40;1.23;;;2.50;7.40;;;;;;7365765;19;20011;-60
2022/02/25 02:12:41;;;;;;;4.80;1.00;;;2.50;7.60;;;;;;7362204;19;20026;-60
2022/02/25 02:15:12;;;;;;;8.88;1.40;;;2.50;7.60;;;;;;7383741;19;20013;-60
2022/02/25 02:17:42;;;;;;;4.55;1.38;;;2.40;7.80;;;;;;7363193;19;20081;-60
2022/02/25 02:20:12;;;;;;;2.00;1.08;;;2.40;8.60;;;;;;7364618;19;20338;-60
2022/02/25 02:22:46;;;;;;;5.68;1.35;;;2.40;8.80;;;;;;7361169;19;20046;-60
2022/02/25 02:25:16;;;;;;;5.45;1.23;;;2.40;9.00;;;;;;7363529;19;20036;-60
2022/02/25 02:30:28;;;;;;;2.38;1.10;;;2.30;7.90;;;;;;7381390;19;20018;-59
2022/02/25 02:33:00;;;;;;;3.50;1.02;;;2.30;8.20;;;;;;7365987;19;20018;-59
2022/02/25 02:35:30;;;;;;;4.75;1.20;;;2.30;8.10;;;;;;7364373;19;20080;-59
2022/02/25 02:38:04;;;;;;;6.63;1.20;;;2.20;7.70;;;;;;7365424;19;20018;-59
2022/02/25 02:40:34;;;;;;;4.35;1.50;;;2.20;8.40;;;;;;7359058;19;20466;-60
2022/02/25 02:43:06;;;;;;;3.17;1.25;;;2.10;8.40;;;;;;7365098;19;20016;-60
2022/02/25 02:45:35;;;;;;;5.10;0.90;;;2.20;8.50;;;;;;7363852;19;20356;-59
2022/02/25 02:48:06;;;;;;;6.85;1.52;;;2.10;8.40;;;;;;7386471;19;20018;-60
2022/02/25 02:50:36;;;;;;;3.53;1.50;;;2.10;8.00;;;;;;7359849;19;20367;-60
2022/02/25 02:53:09;;;;;;;2.70;1.40;;;2.10;8.50;;;;;;7365020;19;20540;-60
2022/02/25 02:55:39;;;;;;;5.30;1.27;;;2.10;8.10;;;;;;7362229;19;20007;-60
2022/02/25 02:58:09;;;;;;;4.50;1.05;;;2.10;8.00;;;;;;7366037;19;20097;-60
2022/02/25 03:00:41;;;;;;;1.60;0.98;;;2.10;7.20;;;;;;7359059;19;20014;-60
2022/02/25 03:03:12;;;;;;;3.33;1.10;;;2.10;7.40;;;;;;7385678;19;20018;-60
2022/02/25 03:05:43;;;;;;;5.35;1.10;;;2.10;8.00;;;;;;7361517;19;20010;-58
2022/02/25 03:08:16;;;;;;;4.97;1.13;;;2.10;7.70;;;;;;7364724;19;20082;-60
2022/02/25 03:10:47;;;;;;;5.82;1.52;;;2.20;8.30;;;;;;7359639;19;20024;-60
2022/02/25 03:13:19;;;;;;;9.23;1.60;;;2.30;7.80;;;;;;7363504;19;20432;-59
2022/02/25 03:15:49;;;;;;;4.18;0.98;;;2.40;7.30;;;;;;7361395;19;20017;-61
2022/02/25 03:18:19;;;;;;;6.53;1.50;;;2.40;7.70;;;;;;7384740;19;20111;-60
2022/02/25 03:20:51;;;;;;;5.78;1.40;;;2.40;7.30;;;;;;7360215;19;20014;-61
2022/02/25 03:23:28;;;;;;;3.63;1.27;;;2.50;7.80;;;;;;7363769;19;20010;-58
2022/02/25 03:26:02;;;;;;;3.55;1.23;;;2.50;7.80;;;;;;7360458;19;20086;-58
2022/02/25 03:28:32;;;;;;;3.55;1.38;;;2.50;7.40;;;;;;7361310;19;20018;-60
2022/02/25 03:31:02;;;;;;;4.18;1.60;;;2.50;7.60;;;;;;7358816;19;20050;-59
2022/02/25 03:33:32;;;;;;;3.25;1.02;;;2.40;7.50;;;;;;7387171;19;20078;-60
2022/02/25 03:36:02;;;;;;;8.65;1.20;;;2.40;8.20;;;;;;7361872;19;20028;-60
2022/02/25 03:38:34;;;;;;;6.03;1.13;;;2.30;9.00;;;;;;7360858;19;20014;-60
2022/02/25 03:41:04;;;;;;;6.20;1.23;;;2.20;9.10;;;;;;7357658;19;20013;-60
2022/02/25 03:43:34;;;;;;;7.82;1.48;;;2.10;10.10;;;;;;7363845;19;20094;-60
2022/02/25 03:46:04;;;;;;;9.30;1.60;;;2.10;10.30;;;;;;7362700;19;20007;-60
2022/02/25 03:48:34;;;;;;;6.50;2.38;;;2.10;11.30;;;;;;7368875;19;20479;-60
2022/02/25 03:51:04;;;;;;;3.92;1.30;;;2.00;11.50;;;;;;7379057;19;20015;-60
2022/02/25 03:53:37;;;;;;;5.38;1.65;;;2.10;11.80;;;;;;7363776;19;20070;-60
2022/02/25 03:56:07;;;;;;;5.03;1.27;;;2.00;10.90;;;;;;7361190;19;20472;-60
2022/02/25 03:58:36;;;;;;;6.10;1.70;;;2.00;11.40;;;;;;7361509;19;20086;-60
2022/02/25 04:01:06;;;;;;;8.68;2.00;;;2.00;11.40;;;;;;7357899;19;20010;-60
2022/02/25 04:03:37;;;;;;;8.45;2.15;;;2.00;11.40;;;;;;7362169;19;20011;-59
2022/02/25 04:06:07;;;;;;;7.53;1.60;;;2.00;10.70;;;;;;7382795;19;20374;-59
2022/02/25 04:08:39;;;;;;;7.38;1.85;;;2.10;10.70;;;;;;7361309;19;20006;-60
2022/02/25 04:11:09;;;;;;;6.28;1.85;;;2.10;10.70;;;;;;7356540;19;20467;-60
2022/02/25 04:13:39;;;;;;;8.50;1.60;;;2.20;11.10;;;;;;7361721;19;20010;-60
2022/02/25 04:16:10;;;;;;;8.52;1.80;;;2.30;9.70;;;;;;7361503;19;20471;-60
2022/02/25 04:18:40;;;;;;;9.70;2.30;;;2.40;9.00;;;;;;7362042;19;20534;-60
2022/02/25 04:21:10;;;;;;;8.60;1.90;;;2.50;8.00;;;;;;7377268;19;20006;-59
2022/02/25 04:23:42;;;;;;;5.43;1.45;;;2.50;7.90;;;;;;7363531;19;20014;-59
2022/02/25 04:26:12;;;;;;;6.82;1.63;;;2.50;8.30;;;;;;7367062;19;20086;-60
2022/02/25 04:28:42;;;;;;;9.60;1.88;;;2.50;8.60;;;;;;7370132;19;20010;-59
2022/02/25 04:31:12;;;;;;;6.15;1.70;;;2.60;7.50;;;;;;7363251;19;20323;-59
2022/02/25 04:33:42;;;;;;;7.63;1.88;;;2.60;7.90;;;;;;7368755;19;20034;-59
2022/02/25 04:36:11;;;;;;;9.18;2.00;;;2.60;8.30;;;;;;7387867;19;20470;-58
2022/02/25 04:38:44;;;;;;;6.70;2.20;;;2.60;8.80;;;;;;7368610;19;20093;-58
2022/02/25 04:41:14;;;;;;;7.65;1.60;;;2.60;8.40;;;;;;7364230;19;20013;-58
2022/02/25 04:43:45;;;;;;;11.25;1.83;;;2.60;8.30;;;;;;7369228;19;20114;-58
2022/02/25 04:46:19;;;;;;;7.78;1.65;;;2.60;8.20;;;;;;7365876;19;20048;-59
2022/02/25 04:48:49;;;;;;;7.93;1.88;;;2.70;7.70;;;;;;7368590;19;20442;-59
2022/02/25 04:51:19;;;;;;;10.00;2.10;;;2.70;8.30;;;;;;7386219;19;20010;-59
2022/02/25 04:53:54;;;;;;;10.15;2.13;;;2.70;7.50;;;;;;7367045;19;20472;-59
2022/02/25 04:56:24;;;;;;;7.05;1.95;;;2.80;7.60;;;;;;7364271;19;20091;-59
2022/02/25 04:58:54;;;;;;;11.13;1.92;;;2.80;7.60;;;;;;7367758;19;20006;-59
2022/02/25 05:01:24;;;;;;;7.50;1.88;;;2.80;8.00;;;;;;7363629;19;20533;-59
2022/02/25 05:03:54;;;;;;;5.93;2.13;;;2.70;7.90;;;;;;7369684;19;20011;-60
2022/02/25 05:06:24;;;;;;;10.10;2.30;;;2.70;8.00;;;;;;7385316;19;20021;-59
2022/02/25 05:08:57;;;;;;;7.00;1.83;;;2.70;8.60;;;;;;7365474;19;20090;-60
2022/02/25 05:11:30;;;;;;;11.25;1.90;;;2.70;8.30;;;;;;7362466;19;20019;-60
2022/02/25 05:14:02;;;;;;;9.65;2.20;;;2.80;7.60;;;;;;7368567;19;20443;-59
2022/02/25 05:21:57;;;;;;;7.72;2.10;;;2.90;7.60;;;;;;7362464;19;20010;-58
2022/02/25 05:24:30;;;;;;;8.30;1.63;;;2.90;6.90;;;;;;7388974;19;20007;-60
2022/02/25 05:27:00;;;;;;;5.70;1.83;;;2.90;6.90;;;;;;7363811;19;20010;-60
2022/02/25 05:29:30;;;;;;;9.50;2.13;;;2.90;7.70;;;;;;7364690;19;20599;-58
2022/02/25 05:32:00;;;;;;;7.20;1.70;;;2.90;7.70;;;;;;7362698;19;20025;-59
2022/02/25 05:34:30;;;;;;;9.43;2.45;;;2.90;6.00;;;;;;7367796;19;20465;-59
2022/02/25 05:37:00;;;;;;;8.77;1.88;;;2.90;5.80;;;;;;7365112;19;20010;-59
2022/02/25 05:39:32;;;;;;;7.53;2.38;;;2.90;5.60;;;;;;7387531;19;20018;-58
2022/02/25 05:42:02;;;;;;;12.65;2.25;;;2.90;6.00;;;;;;7360589;19;20007;-60
2022/02/25 05:44:32;;;;;;;5.85;2.10;;;3.00;5.50;;;;;;7365080;19;20459;-59
2022/02/25 05:47:02;;;;;;;10.38;2.05;;;3.00;4.90;;;;;;7364897;19;20007;-60
2022/02/25 05:49:32;;;;;;;8.18;2.25;;;3.00;5.80;;;;;;7365611;19;20078;-59
2022/02/25 05:52:02;;;;;;;6.25;2.05;;;3.00;5.80;;;;;;7360830;19;20472;-60
2022/02/25 05:54:34;;;;;;;10.55;3.70;;;3.00;5.00;;;;;;7386956;19;20467;-58
2022/02/25 05:57:04;;;;;;;9.43;2.05;;;3.00;5.20;;;;;;7363720;19;20011;-60
2022/02/25 05:59:34;;;;;;;10.18;2.38;;;2.90;4.70;;;;;;7363528;19;20021;-59
2022/02/25 06:02:05;;;;;;;10.02;2.50;;;3.00;5.40;;;;;;7363274;19;20010;-60
2022/02/25 06:04:35;;;;;;;16.92;2.30;;;3.00;5.40;;;;;;7365729;19;20013;-59
2022/02/25 06:07:05;;;;;;;11.75;2.30;;;3.00;5.60;;;;;;7364775;19;20013;-60
2022/02/25 06:09:38;;;;;;;8.32;2.08;;;2.90;5.50;;;;;;7363221;19;20011;-62
2022/02/25 06:12:09;;;;;;;10.63;2.45;;;2.80;6.00;;;;;;7383776;19;20014;-60
2022/02/25 06:14:39;;;;;;;6.47;2.20;;;2.70;6.40;;;;;;7366316;19;20078;-59
2022/02/25 06:17:09;;;;;;;8.57;2.25;;;2.60;7.10;;;;;;7365223;19;20011;-60
2022/02/25 06:19:39;;;;;;;14.52;2.80;;;2.60;7.40;;;;;;7362432;19;20015;-60
2022/02/25 06:22:09;;;;;;;11.00;2.70;;;2.50;7.40;;;;;;7361478;19;20014;-59
2022/02/25 06:24:41;;;;;;;6.68;2.03;;;2.50;7.40;;;;;;7365604;19;20094;-61
2022/02/25 06:27:11;;;;;;;7.25;2.45;;;2.50;7.60;;;;;;7385161;19;20011;-60
2022/02/25 06:29:41;;;;;;;8.65;2.70;;;2.50;7.50;;;;;;7362069;19;20011;-58
2022/02/25 06:32:11;;;;;;;9.45;2.97;;;2.50;7.80;;;;;;7360276;19;20485;-60
2022/02/25 06:34:45;;;;;;;9.93;2.50;;;2.40;7.30;;;;;;7363095;19;20014;-59
2022/02/25 06:37:14;;;;;;;9.02;2.58;;;2.50;7.40;;;;;;7363480;19;20023;-59
2022/02/25 06:39:47;;;;;;;11.98;2.50;;;2.50;7.10;;;;;;7360474;19;20122;-60
2022/02/25 06:42:17;;;;;;;6.78;2.55;;;2.50;6.40;;;;;;7380647;19;20012;-59
2022/02/25 06:44:47;;;;;;;10.52;2.58;;;2.60;6.50;;;;;;7362194;19;20331;-59
2022/02/25 06:47:17;;;;;;;8.57;2.47;;;2.60;6.30;;;;;;7363491;19;20398;-60
2022/02/25 06:49:47;;;;;;;12.93;2.40;;;2.60;6.20;;;;;;7362820;19;20439;-60
2022/02/25 06:52:18;;;;;;;8.57;2.90;;;2.70;6.90;;;;;;7359003;19;20017;-60
2022/02/25 06:54:50;;;;;;;11.30;2.42;;;2.70;5.60;;;;;;7362489;19;20014;-60
2022/02/25 06:57:20;;;;;;;10.90;2.55;;;2.70;5.60;;;;;;7386657;19;20359;-60
2022/02/25 06:59:50;;;;;;;8.25;2.45;;;2.80;5.30;;;;;;7361185;19;20010;-59
2022/02/25 07:02:21;;;;;;;12.27;2.80;;;2.80;4.90;;;;;;7358063;19;20006;-59
2022/02/25 07:04:51;;;;;;;7.13;2.78;;;2.80;5.00;;;;;;7359924;19;20011;-61
2022/02/25 07:07:21;;;;;;;9.38;2.70;;;2.80;4.50;;;;;;7364409;19;20030;-58
2022/02/25 07:09:53;;;;;;;10.63;2.70;;;2.90;3.60;;;;;;7363143;19;20098;-60
2022/02/25 07:12:25;;;;;;;14.15;2.50;;;2.90;3.50;;;;;;7379415;19;20154;-59
2022/02/25 07:14:56;;;;;;;12.02;3.05;;;3.00;3.10;;;;;;7360129;19;20078;-60
2022/02/25 07:17:26;;;;;;;8.32;2.28;;;3.00;1.90;;;;;;7362975;19;20031;-59
2022/02/25 07:19:56;;;;;;;8.27;2.55;;;3.00;2.20;;;;;;7363319;19;20085;-60
2022/02/25 07:22:45;;;;;;;11.32;2.75;;;3.00;2.00;;;;;;7361261;19;20021;-61
2022/02/25 07:25:19;;;;;;;8.50;2.00;;;3.10;2.10;;;;;;7360530;19;20391;-59
2022/02/25 07:27:49;;;;;;;10.85;3.15;;;3.10;1.10;;;;;;7362789;19;20424;-59
2022/02/25 07:30:23;;;;;;;6.70;1.90;;;3.10;1.80;;;;;;7383844;19;20015;-59
2022/02/25 07:32:53;;;;;;;8.02;1.92;;;3.20;1.10;;;;;;7361723;19;20086;-59
2022/02/25 07:35:24;;;;;;;7.63;3.42;;;3.30;1.20;;;;;;7359526;19;20034;-58
2022/02/25 07:37:54;;;;;;;6.85;2.05;;;3.30;1.00;;;;;;7361742;19;20023;-59
2022/02/25 07:40:27;;;;;;;7.57;2.00;;;3.50;1.00;;;;;;7361685;19;20011;-60
2022/02/25 07:42:58;;;;;;;9.50;2.53;;;3.60;1.00;;;;;;7362313;19;20034;-60
2022/02/25 07:45:28;;;;;;;10.05;2.00;;;3.60;1.00;;;;;;7382103;19;20018;-60
2022/02/25 07:47:58;;;;;;;11.10;2.50;;;3.70;1.00;;;;;;7360416;19;20022;-60
2022/02/25 07:50:29;;;;;;;6.18;1.95;;;3.80;1.00;;;;;;7357688;19;20364;-60
2022/02/25 07:52:59;;;;;;;10.35;2.22;;;3.90;1.00;;;;;;7361239;19;20084;-59
2022/02/25 07:55:32;;;;;;;8.60;2.40;;;4.00;1.00;;;;;;7361102;19;20048;-60
2022/02/25 07:58:02;;;;;;;7.68;2.10;;;4.10;1.00;;;;;;7358022;19;20553;-59
2022/02/25 08:00:33;;;;;;;8.75;1.98;;;4.20;1.00;;;;;;7377688;19;20014;-60
2022/02/25 08:03:04;;;;;;;7.60;2.10;;;4.20;1.00;;;;;;7362348;19;20007;-60
2022/02/25 08:05:36;;;;;;;11.10;2.92;;;4.40;1.00;;;;;;7360173;19;20529;-60
2022/02/25 08:08:08;;;;;;;6.05;1.77;;;4.50;1.00;;;;;;7361994;19;20074;-60
2022/02/25 08:10:41;;;;;;;6.80;1.55;;;4.60;1.00;;;;;;7357485;19;20062;-59
2022/02/25 08:13:12;;;;;;;10.40;2.25;;;4.60;1.00;;;;;;7362052;19;20485;-59
2022/02/25 08:15:42;;;;;;;7.72;1.63;;;4.60;1.00;;;;;;7360266;19;20384;-59
2022/02/25 08:18:13;;;;;;;8.20;2.55;;;4.70;1.00;;;;;;7382863;19;20022;-60
2022/02/25 08:20:43;;;;;;;9.73;3.53;;;4.80;1.00;;;;;;7355505;19;20070;-60
2022/02/25 08:23:13;;;;;;;7.43;1.98;;;4.90;1.00;;;;;;7359876;19;20471;-60
2022/02/25 08:25:46;;;;;;;7.10;1.90;;;4.80;1.00;;;;;;7358975;19;20007;-60
2022/02/25 08:28:16;;;;;;;4.25;1.52;;;4.90;1.00;;;;;;7362917;19;20098;-60
2022/02/25 08:30:46;;;;;;;10.65;1.45;;;4.90;1.00;;;;;;7357031;19;20093;-60
2022/02/25 08:33:17;;;;;;;6.50;1.50;;;5.00;1.00;;;;;;7382355;19;20021;-59
2022/02/25 08:35:47;;;;;;;8.48;1.70;;;5.00;1.00;;;;;;7357467;19;20411;-60
2022/02/25 08:38:17;;;;;;;6.55;1.77;;;5.00;1.00;;;;;;7360075;19;20006;-60
2022/02/25 08:40:50;;;;;;;7.50;1.75;;;5.00;1.00;;;;;;7357813;19;20006;-59
2022/02/25 08:43:20;;;;;;;7.10;1.90;;;5.10;1.00;;;;;;7362016;19;20466;-59
2022/02/25 08:46:09;;;;;;;7.97;2.15;;;5.10;1.00;;;;;;7357855;19;20089;-59
2022/02/25 08:48:41;;;;;;;11.05;1.73;;;5.10;1.00;;;;;;7358967;19;20017;-60
2022/02/25 08:51:11;;;;;;;8.95;1.80;;;5.20;1.00;;;;;;7378637;19;20402;-60
2022/02/25 08:53:42;;;;;;;8.25;2.10;;;5.20;1.00;;;;;;7362920;19;20022;-60
2022/02/25 08:56:14;;;;;;;9.05;1.83;;;5.30;1.00;;;;;;7358680;19;20074;-60
2022/02/25 08:58:44;;;;;;;6.32;1.60;;;5.30;1.00;;;;;;7358977;19;20550;-60
2022/02/25 09:01:14;;;;;;;6.57;1.60;;;5.40;1.00;;;;;;7356188;19;20090;-60
2022/02/25 09:03:45;;;;;;;18.35;2.47;;;5.30;1.00;;;;;;7363203;19;20021;-60
2022/02/25 09:06:15;;;;;;;6.38;1.60;;;5.40;1.00;;;;;;7378436;19;20399;-60
2022/02/25 09:08:46;;;;;;;9.07;1.60;;;5.60;1.00;;;;;;7358302;19;20015;-60
2022/02/25 09:11:19;;;;;;;7.55;1.75;;;5.70;1.00;;;;;;7360982;19;20098;-60
2022/02/25 09:13:49;;;;;;;7.38;2.05;;;5.70;1.00;;;;;;7368340;19;20082;-60
2022/02/25 09:16:19;;;;;;;5.20;1.50;;;6.00;1.00;;;;;;7367120;19;20078;-60
2022/02/25 09:18:49;;;;;;;5.35;1.58;;;6.00;1.00;;;;;;7365253;19;20010;-58
2022/02/25 09:21:21;;;;;;;9.30;1.95;;;6.20;1.00;;;;;;7382090;19;20127;-60
2022/02/25 09:23:51;;;;;;;10.35;1.73;;;6.30;1.00;;;;;;7366928;19;20043;-60
2022/02/25 09:26:23;;;;;;;9.00;2.42;;;6.60;1.00;;;;;;7365215;19;20164;-62
2022/02/25 09:28:53;;;;;;;7.95;1.63;;;6.50;1.00;;;;;;7366076;19;20032;-60
2022/02/25 09:31:23;;;;;;;9.20;1.30;;;6.80;1.00;;;;;;7361223;19;20074;-60
2022/02/25 09:33:53;;;;;;;4.65;1.30;;;7.00;1.00;;;;;;7367287;19;20019;-60
2022/02/25 09:36:23;;;;;;;6.78;1.70;;;6.60;1.00;;;;;;7386155;19;20521;-59
2022/02/25 09:38:53;;;;;;;10.23;1.60;;;7.00;1.00;;;;;;7365886;19;20003;-60
2022/02/25 09:41:25;;;;;;;8.48;1.75;;;6.80;1.00;;;;;;7360937;19;20037;-60
2022/02/25 09:43:55;;;;;;;12.38;1.88;;;6.60;1.00;;;;;;7366808;19;20118;-60
2022/02/25 09:46:26;;;;;;;5.55;1.00;;;7.10;1.00;;;;;;7363902;19;20006;-59
2022/02/25 09:48:55;;;;;;;3.83;1.23;;;6.80;1.00;;;;;;7365775;19;20494;-60
2022/02/25 09:51:25;;;;;;;8.40;1.30;;;6.90;1.00;;;;;;7381794;19;20700;-59
2022/02/25 09:53:56;;;;;;;8.88;1.70;;;7.20;1.00;;;;;;7365191;19;20021;-60
2022/02/25 09:56:29;;;;;;;13.38;1.88;;;7.20;1.00;;;;;;7362878;19;20478;-59
2022/02/25 09:58:59;;;;;;;5.72;1.05;;;7.20;1.00;;;;;;7364677;19;20526;-60
2022/02/25 10:01:33;;;;;;;6.28;1.48;;;7.20;1.00;;;;;;7362586;19;20085;-61
2022/02/25 10:04:12;;;;;;;5.20;1.17;;;7.20;1.00;;;;;;7365074;19;20612;-60
2022/02/25 10:06:43;;;;;;;8.13;1.60;;;7.60;1.00;;;;;;7362426;19;20029;-59
2022/02/25 10:09:31;;;;;;;6.53;1.50;;;7.30;1.00;;;;;;7385818;19;20014;-59
2022/02/25 10:12:09;;;;;;;10.77;1.90;;;7.30;1.00;;;;;;7359914;19;20031;-59
2022/02/25 10:14:40;;;;;;;7.90;1.40;;;7.40;1.00;;;;;;7366928;19;20013;-60
2022/02/25 10:17:15;;;;;;;10.10;1.65;;;7.70;1.00;;;;;;7365492;19;20010;-61
2022/02/25 10:19:47;;;;;;;5.40;1.55;;;7.70;1.00;;;;;;7363453;19;20013;-60
2022/02/25 10:22:24;;;;;;;10.07;1.95;;;7.50;1.00;;;;;;7357163;19;20027;-58
2022/02/25 10:24:57;;;;;;;7.18;1.52;;;7.70;1.00;;;;;;7362493;19;20112;-59
2022/02/25 10:27:37;;;;;;;8.40;1.77;;;7.50;1.00;;;;;;7387047;19;20053;-60
2022/02/25 10:30:11;;;;;;;6.25;1.33;;;7.30;1.00;;;;;;7363263;19;20020;-60
2022/02/25 10:32:42;;;;;;;3.07;1.30;;;6.90;1.00;;;;;;7357377;19;20630;-59
2022/02/25 10:35:28;;;;;;;4.45;1.30;;;7.20;1.00;;;;;;7361192;19;20276;-60
2022/02/25 10:38:04;;;;;;;9.57;1.10;;;6.90;1.00;;;;;;7363159;19;20147;-61
2022/02/25 10:40:37;;;;;;;7.22;1.30;;;6.90;1.00;;;;;;7363202;19;20006;-60
2022/02/25 10:43:25;;;;;;;10.73;2.67;;;7.00;1.00;;;;;;7363851;19;20498;-59
2022/02/25 10:45:57;;;;;;;11.63;1.52;;;7.50;1.00;;;;;;7360149;19;20042;-60
2022/02/25 10:48:50;;;;;;;5.78;1.02;;;7.50;1.00;;;;;;7383224;19;20010;-59
2022/02/25 10:51:25;;;;;;;4.13;1.35;;;7.70;1.00;;;;;;7357844;19;20027;-59
2022/02/25 10:53:59;;;;;;;7.45;1.23;;;7.50;1.00;;;;;;7364268;19;20082;-60
2022/02/25 10:56:29;;;;;;;8.48;1.67;;;7.40;1.00;;;;;;7362926;19;20204;-60
2022/02/25 10:59:01;;;;;;;8.88;1.55;;;7.20;1.00;;;;;;7357610;19;20006;-61
2022/02/25 11:01:38;;;;;;;4.32;1.25;;;7.20;1.00;;;;;;7355361;19;20031;-60
2022/02/25 11:04:13;;;;;;;9.02;1.75;;;7.40;1.00;;;;;;7362907;19;20016;-60
2022/02/25 11:06:44;;;;;;;5.63;1.45;;;7.20;1.00;;;;;;7361178;19;20014;-61
2022/02/25 11:09:14;;;;;;;8.90;2.00;;;7.00;1.00;;;;;;7383975;19;20538;-60
2022/02/25 11:11:44;;;;;;;7.38;1.33;;;7.20;1.00;;;;;;7354472;19;20496;-60
2022/02/25 11:14:20;;;;;;;4.32;1.10;;;7.10;1.00;;;;;;7361023;19;20537;-62
2022/02/25 11:16:50;;;;;;;5.20;1.63;;;7.40;1.00;;;;;;7360842;19;20009;-59
2022/02/25 11:19:26;;;;;;;8.45;1.52;;;7.40;1.00;;;;;;7361975;19;20015;-59
2022/02/25 11:21:57;;;;;;;11.77;1.50;;;6.90;1.00;;;;;;7357085;19;21913;-60
2022/02/25 11:24:29;;;;;;;7.70;3.40;;;7.00;1.00;;;;;;7383147;19;20010;-59
2022/02/25 11:27:19;;;;;;;4.88;1.40;;;6.70;1.00;;;;;;7362063;19;20010;-59
2022/02/25 11:30:02;;;;;;;5.03;1.45;;;6.70;1.00;;;;;;7358187;19;20078;-60
2022/02/25 11:32:38;;;;;;;4.07;1.30;;;6.90;1.00;;;;;;7356699;19;20014;-60
2022/02/25 11:35:26;;;;;;;5.10;1.23;;;6.80;1.00;;;;;;7357816;19;20097;-60
2022/02/25 11:38:02;;;;;;;5.22;1.10;;;7.00;1.00;;;;;;7361023;19;20031;-61
2022/02/25 11:40:53;;;;;;;9.52;1.67;;;7.30;1.00;;;;;;7358977;19;20351;-59
2022/02/25 11:43:45;;;;;;;8.55;1.70;;;7.40;1.00;;;;;;7362103;19;20003;-60
2022/02/25 11:46:24;;;;;;;7.18;1.20;;;7.00;1.00;;;;;;7361991;19;20010;-60
2022/02/25 11:48:57;;;;;;;7.80;2.45;;;7.00;1.00;;;;;;7359941;19;20125;-60
2022/02/25 11:51:33;;;;;;;7.75;1.27;;;7.20;1.00;;;;;;7377220;19;20074;-60
2022/02/25 11:54:30;;;;;;;6.53;1.35;;;6.90;1.00;;;;;;7359941;19;20075;-58
2022/02/25 11:57:22;;;;;;;5.35;1.88;;;7.00;1.00;;;;;;7358244;19;20010;-61
2022/02/25 12:00:22;;;;;;;6.95;1.25;;;7.30;1.00;;;;;;7359659;19;20476;-60
2022/02/25 12:03:15;;;;;;;6.05;1.50;;;7.40;1.00;;;;;;7356516;19;20081;-60
2022/02/25 12:05:47;;;;;;;3.38;1.23;;;7.20;1.00;;;;;;7357832;19;20040;-59
2022/02/25 12:08:27;;;;;;;4.93;1.00;;;7.50;1.00;;;;;;7360201;19;20007;-61
2022/02/25 12:11:25;;;;;;;9.65;1.40;;;7.60;1.00;;;;;;7352844;19;20090;-60
2022/02/25 12:13:55;;;;;;;5.65;1.13;;;7.40;1.00;;;;;;7361011;19;20006;-60
2022/02/25 12:16:30;;;;;;;6.07;1.05;;;7.50;1.00;;;;;;7358209;19;20752;-60
2022/02/25 12:19:22;;;;;;;8.52;1.10;;;7.30;1.00;;;;;;7359074;19;20111;-60
2022/02/25 12:21:52;;;;;;;8.68;1.25;;;7.30;1.00;;;;;;7356646;19;20382;-60
2022/02/25 12:24:23;;;;;;;6.75;1.20;;;7.80;1.00;;;;;;7384601;19;20078;-61
2022/02/25 12:27:01;;;;;;;7.07;2.05;;;7.70;1.00;;;;;;7356140;19;20017;-59
2022/02/25 12:29:38;;;;;;;7.50;1.50;;;7.80;1.00;;;;;;7358154;19;20033;-61
2022/02/25 12:32:08;;;;;;;5.25;1.35;;;8.10;1.00;;;;;;7355025;19;20375;-60
2022/02/25 12:34:41;;;;;;;4.40;1.50;;;8.20;1.00;;;;;;7360644;19;20747;-60
2022/02/25 12:37:18;;;;;;;5.47;1.50;;;8.20;1.00;;;;;;7362235;19;20002;-60
2022/02/25 12:39:48;;;;;;;6.53;1.23;;;7.70;1.00;;;;;;7358377;19;20463;-61
2022/02/25 12:42:18;;;;;;;4.53;1.10;;;7.80;1.00;;;;;;7375275;19;20085;-59
2022/02/25 12:44:48;;;;;;;8.80;1.65;;;7.70;1.00;;;;;;7359113;19;20084;-61
2022/02/25 12:47:19;;;;;;;5.03;1.10;;;7.90;1.00;;;;;;7368229;19;20010;-60
2022/02/25 12:49:51;;;;;;;7.30;1.60;;;7.60;1.00;;;;;;7367089;19;20082;-60
2022/02/25 12:52:21;;;;;;;8.77;1.33;;;7.60;1.00;;;;;;7360937;19;20049;-59
2022/02/25 12:54:57;;;;;;;5.63;1.30;;;7.90;1.00;;;;;;7363954;19;20027;-59
2022/02/25 12:57:27;;;;;;;3.70;0.80;;;7.70;1.00;;;;;;7388688;19;20354;-60
2022/02/25 13:00:02;;;;;;;12.00;2.25;;;7.70;1.00;;;;;;7365303;19;20011;-61
2022/02/25 13:02:32;;;;;;;8.25;1.50;;;8.00;1.00;;;;;;7361578;19;20022;-60
2022/02/25 13:05:07;;;;;;;6.85;1.45;;;7.80;1.00;;;;;;7364125;19;20138;-61
2022/02/25 13:07:37;;;;;;;8.00;1.50;;;7.60;1.00;;;;;;7366939;19;20081;-61
2022/02/25 13:10:08;;;;;;;6.50;1.25;;;7.60;1.00;;;;;;7365759;19;20018;-60
2022/02/25 13:12:38;;;;;;;6.05;1.25;;;7.70;1.00;;;;;;7363197;19;20450;-61
2022/02/25 13:15:08;;;;;;;3.33;1.38;;;7.50;1.00;;;;;;7384273;19;20014;-60
2022/02/25 13:17:38;;;;;;;7.97;1.85;;;7.70;1.00;;;;;;7365158;19;20139;-59
2022/02/25 13:20:13;;;;;;;6.88;1.90;;;7.70;1.00;;;;;;7367175;19;20017;-59
2022/02/25 13:22:44;;;;;;;7.25;1.40;;;7.70;1.00;;;;;;7362826;19;20011;-60
2022/02/25 13:25:17;;;;;;;11.65;1.67;;;7.60;1.00;;;;;;7364779;19;20035;-60
2022/02/25 13:27:49;;;;;;;6.45;1.25;;;7.70;1.00;;;;;;7365271;19;20027;-60
2022/02/25 13:30:23;;;;;;;6.30;1.23;;;7.20;1.00;;;;;;7386171;19;20018;-60
2022/02/25 13:32:56;;;;;;;6.55;1.38;;;7.20;1.00;;;;;;7362943;19;20016;-60
2022/02/25 13:35:31;;;;;;;10.75;1.75;;;7.30;1.00;;;;;;7365662;19;20010;-62
2022/02/25 13:38:05;;;;;;;9.35;1.70;;;7.30;1.00;;;;;;7367475;19;20011;-61
2022/02/25 13:40:40;;;;;;;8.13;1.90;;;7.10;1.00;;;;;;7361904;19;20803;-59